createdAt,value
2019-04-27T00:00:45.786Z,48.10
2019-04-27T00:03:16.792Z,48.92
2019-04-27T00:05:47.985Z,49.28
2019-04-27T00:08:35.130Z,49.78
2019-04-27T00:11:08.627Z,50.18
2019-04-27T00:13:40.727Z,50.74
2019-04-27T00:16:13.344Z,51.39
2019-04-27T00:18:45.547Z,52.07
2019-04-27T00:21:16.878Z,52.33
2019-04-27T00:23:49.215Z,52.92
2019-04-27T00:26:18.682Z,53.44
2019-04-27T00:28:47.978Z,53.81
2019-04-27T00:31:17.403Z,53.93
2019-04-27T00:33:46.734Z,54.29
2019-04-27T00:36:17.666Z,54.21
2019-04-27T00:38:54.520Z,54.48
2019-04-27T00:41:24.258Z,54.73
2019-04-27T00:43:53.611Z,55.01
2019-04-27T00:46:23.498Z,55.25
2019-04-27T00:48:53.404Z,55.39
2019-04-27T00:51:23.235Z,55.69
2019-04-27T00:53:53.721Z,56.09
2019-04-27T00:56:42.940Z,56.14
2019-04-27T00:59:30.296Z,56.12
2019-04-27T01:02:19.629Z,56.28
2019-04-27T01:04:49.036Z,56.54
2019-04-27T01:07:18.398Z,56.23
2019-04-27T01:09:47.690Z,56.38
2019-04-27T01:12:18.867Z,56.36
2019-04-27T01:14:48.731Z,56.43
2019-04-27T01:17:18.903Z,56.40
2019-04-27T01:19:49.388Z,56.39
2019-04-27T01:22:18.957Z,56.44
2019-04-27T01:24:49.236Z,56.43
2019-04-27T01:27:20.261Z,56.55
2019-04-27T01:29:50.250Z,56.15
2019-04-27T01:32:20.638Z,56.28
2019-04-27T01:34:50.457Z,56.22
2019-04-27T01:37:21.199Z,56.25
2019-04-27T01:39:50.660Z,56.22
2019-04-27T01:42:20.131Z,56.30
2019-04-27T01:44:51.096Z,56.07
2019-04-27T01:47:20.560Z,56.17
2019-04-27T01:49:50.227Z,56.04
2019-04-27T01:52:19.659Z,56.01
2019-04-27T01:54:49.551Z,56.02
2019-04-27T01:57:19.512Z,56.01
2019-04-27T01:59:49.069Z,55.81
2019-04-27T02:02:39.373Z,55.83
2019-04-27T02:05:29.117Z,55.65
2019-04-27T02:07:59.227Z,55.57
2019-04-27T02:10:29.284Z,55.73
2019-04-27T02:12:58.872Z,55.38
2019-04-27T02:15:29.318Z,55.20
2019-04-27T02:17:59.700Z,55.28
2019-04-27T02:20:30.109Z,55.24
2019-04-27T02:23:01.189Z,55.46
2019-04-27T02:25:30.617Z,55.19
2019-04-27T02:28:01.590Z,55.38
2019-04-27T02:30:49.860Z,55.26
2019-04-27T02:33:23.289Z,55.33
2019-04-27T02:35:52.642Z,55.61
2019-04-27T02:38:21.976Z,55.49
2019-04-27T02:40:54.085Z,55.48
2019-04-27T02:43:29.603Z,55.45
2019-04-27T02:46:00.428Z,55.39
2019-04-27T02:48:30.103Z,55.15
2019-04-27T02:51:03.690Z,55.27
2019-04-27T02:53:53.034Z,54.90
2019-04-27T02:56:22.630Z,54.84
2019-04-27T02:58:52.437Z,54.77
2019-04-27T03:01:23.632Z,54.62
2019-04-27T03:03:53.041Z,54.51
2019-04-27T03:06:22.414Z,54.68
2019-04-27T03:08:54.052Z,54.53
2019-04-27T03:11:23.745Z,54.44
2019-04-27T03:14:03.486Z,53.24
2019-04-27T03:16:49.679Z,53.17
2019-04-27T03:19:21.885Z,53.30
2019-04-27T03:21:55.960Z,53.18
2019-04-27T03:24:43.462Z,53.77
2019-04-27T03:27:14.593Z,53.66
2019-04-27T03:29:44.156Z,52.51
2019-04-27T03:32:13.681Z,51.98
2019-04-27T03:34:43.078Z,51.80
2019-04-27T03:37:12.428Z,51.76
2019-04-27T03:39:41.790Z,51.47
2019-04-27T03:42:12.078Z,51.56
2019-04-27T03:44:41.395Z,51.42
2019-04-27T03:47:12.783Z,51.15
2019-04-27T03:49:42.019Z,51.35
2019-04-27T03:52:12.998Z,51.45
2019-04-27T03:54:46.702Z,51.29
2019-04-27T03:57:20.688Z,51.28
2019-04-27T04:00:03.913Z,51.32
2019-04-27T04:02:33.296Z,51.18
2019-04-27T04:05:02.676Z,51.12
2019-04-27T04:07:32.038Z,51.11
2019-04-27T04:10:01.443Z,50.97
2019-04-27T04:12:35.127Z,51.03
2019-04-27T04:15:09.983Z,51.11
2019-04-27T04:17:40.791Z,51.08
2019-04-27T04:20:11.274Z,51.04
2019-04-27T04:22:40.654Z,51.10
2019-04-27T04:25:10.915Z,51.44
2019-04-27T04:27:42.743Z,51.29
2019-04-27T04:30:12.720Z,51.28
2019-04-27T04:32:42.032Z,51.33
2019-04-27T04:35:22.620Z,51.20
2019-04-27T04:37:52.859Z,51.09
2019-04-27T04:40:24.668Z,51.04
2019-04-27T04:43:00.348Z,51.06
2019-04-27T04:45:49.734Z,51.07
2019-04-27T04:48:20.214Z,51.26
2019-04-27T04:50:50.193Z,51.43
2019-04-27T04:53:20.590Z,51.60
2019-04-27T04:55:50.456Z,51.72
2019-04-27T04:58:20.974Z,52.10
2019-04-27T05:00:50.576Z,52.20
2019-04-27T05:03:21.888Z,52.60
2019-04-27T05:05:51.034Z,52.79
2019-04-27T05:08:21.763Z,52.72
2019-04-27T05:10:59.656Z,52.98
2019-04-27T05:13:34.178Z,53.10
2019-04-27T05:16:09.086Z,53.84
2019-04-27T05:18:46.139Z,53.90
2019-04-27T05:21:25.650Z,54.54
2019-04-27T05:24:00.749Z,54.38
2019-04-27T05:26:34.014Z,54.64
2019-04-27T05:29:09.238Z,54.76
2019-04-27T05:31:44.987Z,55.54
2019-04-27T05:34:19.801Z,55.40
2019-04-27T05:36:54.655Z,55.77
2019-04-27T05:39:29.941Z,55.84
2019-04-27T05:42:04.914Z,56.15
2019-04-27T05:44:54.033Z,55.48
2019-04-27T05:47:31.609Z,55.61
2019-04-27T05:50:06.384Z,56.10
2019-04-27T05:52:41.012Z,56.81
2019-04-27T05:55:15.420Z,57.57
2019-04-27T05:57:50.236Z,57.71
2019-04-27T06:00:24.677Z,58.03
2019-04-27T06:02:59.406Z,58.27
2019-04-27T06:05:33.441Z,57.47
2019-04-27T06:08:08.746Z,57.86
2019-04-27T06:10:38.749Z,56.67
2019-04-27T06:13:08.482Z,56.21
2019-04-27T06:15:39.328Z,56.04
2019-04-27T06:18:09.304Z,56.02
2019-04-27T06:20:50.451Z,56.13
2019-04-27T06:23:09.761Z,55.64
2019-04-27T06:25:39.434Z,56.02
2019-04-27T06:28:09.259Z,56.31
2019-04-27T06:30:39.218Z,57.11
2019-04-27T06:33:10.044Z,57.95
2019-04-27T06:35:39.921Z,57.93
2019-04-27T06:38:11.410Z,57.86
2019-04-27T06:40:40.423Z,57.47
2019-04-27T06:43:09.727Z,57.21
2019-04-27T06:45:39.072Z,56.88
2019-04-27T06:48:10.074Z,56.54
2019-04-27T06:50:40.819Z,56.40
2019-04-27T06:53:10.144Z,55.93
2019-04-27T06:55:41.018Z,55.90
2019-04-27T06:58:11.751Z,55.23
2019-04-27T07:00:42.613Z,54.94
2019-04-27T07:03:11.893Z,54.65
2019-04-27T07:05:41.266Z,54.68
2019-04-27T07:08:12.318Z,54.56
2019-04-27T07:10:41.613Z,54.52
2019-04-27T07:13:12.544Z,54.53
2019-04-27T07:15:41.866Z,54.37
2019-04-27T07:18:11.312Z,54.10
2019-04-27T07:20:40.613Z,53.84
2019-04-27T07:23:10.006Z,53.56
2019-04-27T07:25:39.290Z,53.36
2019-04-27T07:28:09.171Z,53.43
2019-04-27T07:30:38.880Z,53.04
2019-04-27T07:33:08.792Z,52.96
2019-04-27T07:35:39.295Z,52.91
2019-04-27T07:38:09.929Z,53.14
2019-04-27T07:40:41.798Z,53.10
2019-04-27T07:43:21.316Z,53.54
2019-04-27T07:45:50.762Z,53.75
2019-04-27T07:48:19.999Z,54.54
2019-04-27T07:50:49.367Z,54.50
2019-04-27T07:53:19.370Z,54.34
2019-04-27T07:55:49.518Z,54.50
2019-04-27T07:58:20.525Z,54.38
2019-04-27T08:00:51.086Z,54.71
2019-04-27T08:03:20.671Z,54.75
2019-04-27T08:05:49.909Z,54.50
2019-04-27T08:08:21.625Z,54.40
2019-04-27T08:10:50.975Z,54.23
2019-04-27T08:13:20.380Z,54.06
2019-04-27T08:15:49.762Z,53.76
2019-04-27T08:18:19.115Z,53.80
2019-04-27T08:20:49.131Z,53.55
2019-04-27T08:23:19.560Z,53.14
2019-04-27T08:25:49.109Z,53.37
2019-04-27T08:28:23.314Z,52.89
2019-04-27T08:31:10.397Z,52.59
2019-04-27T08:33:39.697Z,52.54
2019-04-27T08:36:09.082Z,52.29
2019-04-27T08:38:38.978Z,51.79
2019-04-27T08:41:08.982Z,51.76
2019-04-27T08:43:39.132Z,51.88
2019-04-27T08:46:08.855Z,52.41
2019-04-27T08:48:39.273Z,52.43
2019-04-27T08:51:09.597Z,52.79
2019-04-27T08:53:39.821Z,52.80
2019-04-27T08:56:09.456Z,52.78
2019-04-27T08:58:38.771Z,52.95
2019-04-27T09:01:10.246Z,53.05
2019-04-27T09:03:39.505Z,52.93
2019-04-27T09:06:10.686Z,53.22
2019-04-27T09:08:44.694Z,52.82
2019-04-27T09:11:18.676Z,52.55
2019-04-27T09:13:50.953Z,52.54
2019-04-27T09:16:24.813Z,52.44
2019-04-27T09:18:55.800Z,52.10
2019-04-27T09:21:25.161Z,51.83
2019-04-27T09:23:54.545Z,51.61
2019-04-27T09:26:23.890Z,51.26
2019-04-27T09:28:53.269Z,51.25
2019-04-27T09:31:22.585Z,51.40
2019-04-27T09:33:51.818Z,51.13
2019-04-27T09:36:21.258Z,51.04
2019-04-27T09:38:50.482Z,51.56
2019-04-27T09:41:19.771Z,51.87
2019-04-27T09:43:49.176Z,51.74
2019-04-27T09:46:18.397Z,51.62
2019-04-27T09:48:47.770Z,52.23
2019-04-27T09:51:17.113Z,52.54
2019-04-27T09:53:46.470Z,52.72
2019-04-27T09:56:16.455Z,53.39
2019-04-27T09:58:47.103Z,52.74
2019-04-27T10:01:18.152Z,52.15
2019-04-27T10:03:47.750Z,51.42
2019-04-27T10:06:17.151Z,51.57
2019-04-27T10:08:49.586Z,51.47
2019-04-27T10:11:18.962Z,51.52
2019-04-27T10:13:49.467Z,51.53
2019-04-27T10:16:18.750Z,51.82
2019-04-27T10:18:48.106Z,52.01
2019-04-27T10:21:17.515Z,51.73
2019-04-27T10:23:47.108Z,53.17
2019-04-27T10:26:16.483Z,54.29
2019-04-27T10:28:45.910Z,56.28
2019-04-27T10:31:15.510Z,57.92
2019-04-27T10:33:45.878Z,59.56
2019-04-27T10:36:16.971Z,62.57
2019-04-27T10:38:47.841Z,65.13
2019-04-27T10:41:17.148Z,68.17
2019-04-27T10:43:46.437Z,69.58
2019-04-27T10:46:17.226Z,69.90
2019-04-27T10:48:46.511Z,70.19
2019-04-27T10:51:16.102Z,71.22
2019-04-27T10:53:46.869Z,72.54
2019-04-27T10:56:16.292Z,73.69
2019-04-27T10:58:45.754Z,74.49
2019-04-27T11:01:16.780Z,74.72
2019-04-27T11:04:05.988Z,75.28
2019-04-27T11:06:37.027Z,76.40
2019-04-27T11:09:11.673Z,77.04
2019-04-27T11:11:41.230Z,76.73
2019-04-27T11:14:10.830Z,77.39
2019-04-27T11:16:40.177Z,77.96
2019-04-27T11:19:09.541Z,78.91
2019-04-27T11:21:38.938Z,78.98
2019-04-27T11:24:08.295Z,78.39
2019-04-27T11:26:37.656Z,78.41
2019-04-27T11:29:07.263Z,78.50
2019-04-27T11:31:36.682Z,78.04
2019-04-27T11:34:06.690Z,77.80
2019-04-27T11:36:37.972Z,77.50
2019-04-27T11:39:12.628Z,77.60
2019-04-27T11:41:43.471Z,77.99
2019-04-27T11:44:13.049Z,74.41
2019-04-27T11:46:42.449Z,75.49
2019-04-27T11:49:11.737Z,76.53
2019-04-27T11:51:41.157Z,75.77
2019-04-27T11:54:10.472Z,75.82
2019-04-27T11:56:39.836Z,75.82
2019-04-27T11:59:09.196Z,75.72
2019-04-27T12:01:38.587Z,75.76
2019-04-27T12:04:07.961Z,75.96
2019-04-27T12:06:37.345Z,76.36
2019-04-27T12:09:07.144Z,76.69
2019-04-27T12:11:36.506Z,77.20
2019-04-27T12:14:06.283Z,77.24
2019-04-27T12:16:36.246Z,78.28
2019-04-27T12:19:06.545Z,78.81
2019-04-27T12:21:36.415Z,78.57
2019-04-27T12:24:05.893Z,79.19
2019-04-27T12:26:36.819Z,79.13
2019-04-27T12:29:07.803Z,78.95
2019-04-27T12:31:38.828Z,78.09
2019-04-27T12:34:08.194Z,76.75
2019-04-27T12:36:37.689Z,76.29
2019-04-27T12:39:12.817Z,76.19
2019-04-27T12:41:42.178Z,74.80
2019-04-27T12:44:11.644Z,73.29
2019-04-27T12:46:41.034Z,73.37
2019-04-27T12:49:10.692Z,73.83
2019-04-27T12:51:40.047Z,73.39
2019-04-27T12:54:11.006Z,73.52
2019-04-27T12:56:58.403Z,72.63
2019-04-27T12:59:46.686Z,72.68
2019-04-27T13:02:16.765Z,72.85
2019-04-27T13:04:46.671Z,74.33
2019-04-27T13:07:16.389Z,72.49
2019-04-27T13:09:46.114Z,72.20
2019-04-27T13:12:15.749Z,71.13
2019-04-27T13:14:45.737Z,71.05
2019-04-27T13:17:16.451Z,69.85
2019-04-27T13:19:45.854Z,70.70
2019-04-27T13:22:16.523Z,70.38
2019-04-27T13:24:46.141Z,68.00
2019-04-27T13:27:16.661Z,68.73
2019-04-27T13:29:46.668Z,68.74
2019-04-27T13:32:17.259Z,69.32
2019-04-27T13:34:46.644Z,68.68
2019-04-27T13:37:23.678Z,65.46
2019-04-27T13:40:05.996Z,66.12
2019-04-27T13:42:27.185Z,66.99
2019-04-27T13:44:56.778Z,64.28
2019-04-27T13:47:43.876Z,64.90
2019-04-27T13:50:21.030Z,65.37
2019-04-27T13:52:50.430Z,64.93
2019-04-27T13:55:19.780Z,64.64
2019-04-27T13:57:50.539Z,66.26
2019-04-27T14:00:21.293Z,66.15
2019-04-27T14:02:50.663Z,64.06
2019-04-27T14:05:19.960Z,64.11
2019-04-27T14:07:49.456Z,65.53
2019-04-27T14:10:20.389Z,66.17
2019-04-27T14:12:49.828Z,65.69
2019-04-27T14:15:19.586Z,64.92
2019-04-27T14:17:50.020Z,64.65
2019-04-27T14:20:19.497Z,65.85
2019-04-27T14:22:49.469Z,66.51
2019-04-27T14:25:20.509Z,67.02
2019-04-27T14:27:49.837Z,66.01
2019-04-27T14:30:19.709Z,67.26
2019-04-27T14:32:50.681Z,67.29
2019-04-27T14:35:20.009Z,68.35
2019-04-27T14:37:50.290Z,67.24
2019-04-27T14:40:19.773Z,65.91
2019-04-27T14:42:50.535Z,66.00
2019-04-27T14:45:20.144Z,65.69
2019-04-27T14:47:51.168Z,64.13
2019-04-27T14:50:20.559Z,61.73
2019-04-27T14:52:49.838Z,62.11
2019-04-27T14:55:19.268Z,62.66
2019-04-27T14:57:49.574Z,61.64
2019-04-27T15:00:21.041Z,60.73
2019-04-27T15:02:51.671Z,59.30
2019-04-27T15:05:21.332Z,59.88
2019-04-27T15:07:50.758Z,58.11
2019-04-27T15:10:20.161Z,60.70
2019-04-27T15:12:49.525Z,60.73
2019-04-27T15:15:28.352Z,59.36
2019-04-27T15:17:57.576Z,58.39
2019-04-27T15:20:32.863Z,58.43
2019-04-27T15:23:02.506Z,58.32
2019-04-27T15:25:34.980Z,59.64
2019-04-27T15:28:11.530Z,61.17
2019-04-27T15:30:52.309Z,60.64
2019-04-27T15:33:39.673Z,60.15
2019-04-27T15:36:22.647Z,60.01
2019-04-27T15:38:55.463Z,61.25
2019-04-27T15:41:28.894Z,60.83
2019-04-27T15:44:04.818Z,63.24
2019-04-27T15:46:33.649Z,63.20
2019-04-27T15:49:03.051Z,62.22
2019-04-27T15:51:32.205Z,62.91
2019-04-27T15:54:02.029Z,63.38
2019-04-27T15:56:35.225Z,63.73
2019-04-27T15:59:08.679Z,62.72
2019-04-27T16:01:39.588Z,62.77
2019-04-27T16:04:11.237Z,63.44
2019-04-27T16:06:42.803Z,63.77
2019-04-27T16:09:15.939Z,61.91
2019-04-27T16:11:50.146Z,61.32
2019-04-27T16:14:15.578Z,62.23
2019-04-27T16:16:44.890Z,61.64
2019-04-27T16:19:14.376Z,62.56
2019-04-27T16:21:47.072Z,63.07
2019-04-27T16:24:16.997Z,63.57
2019-04-27T16:26:46.330Z,63.60
2019-04-27T16:29:18.520Z,63.45
2019-04-27T16:31:48.248Z,63.08
2019-04-27T16:34:18.498Z,61.71
2019-04-27T16:36:48.027Z,60.72
2019-04-27T16:39:20.377Z,60.34
2019-04-27T16:41:50.362Z,60.06
2019-04-27T16:44:19.989Z,61.12
2019-04-27T16:46:49.424Z,61.95
2019-04-27T16:49:18.862Z,62.35
2019-04-27T16:51:49.264Z,62.65
2019-04-27T16:54:21.293Z,63.74
2019-04-27T16:57:00.054Z,64.43
2019-04-27T16:59:39.741Z,65.11
2019-04-27T17:01:53.506Z,65.25
2019-04-27T17:04:22.868Z,65.56
2019-04-27T17:06:52.313Z,66.25
2019-04-27T17:09:21.716Z,66.78
2019-04-27T17:11:51.854Z,67.29
2019-04-27T17:14:41.509Z,67.12
2019-04-27T17:17:28.287Z,67.10
2019-04-27T17:19:59.455Z,67.31
2019-04-27T17:22:28.804Z,67.92
2019-04-27T17:24:58.229Z,67.77
2019-04-27T17:27:38.275Z,68.02
2019-04-27T17:30:09.114Z,67.66
2019-04-27T17:32:43.020Z,68.40
2019-04-27T17:35:14.837Z,67.88
2019-04-27T17:37:43.613Z,65.20
2019-04-27T17:40:15.396Z,61.92
2019-04-27T17:42:44.099Z,63.33
2019-04-27T17:45:13.659Z,64.19
2019-04-27T17:47:43.106Z,65.50
2019-04-27T17:50:12.861Z,67.66
2019-04-27T17:52:42.278Z,70.78
2019-04-27T17:55:11.675Z,71.79
2019-04-27T17:57:41.041Z,72.78
2019-04-27T18:00:11.529Z,73.08
2019-04-27T18:02:42.505Z,73.94
2019-04-27T18:05:13.843Z,75.00
2019-04-27T18:07:44.353Z,75.49
2019-04-27T18:10:22.685Z,75.36
2019-04-27T18:12:48.787Z,75.59
2019-04-27T18:15:18.203Z,76.20
2019-04-27T18:17:52.046Z,76.07
2019-04-27T18:20:29.641Z,75.11
2019-04-27T18:23:08.870Z,75.18
2019-04-27T18:25:44.751Z,75.76
2019-04-27T18:28:19.036Z,76.52
2019-04-27T18:30:52.727Z,76.83
2019-04-27T18:33:22.313Z,77.57
2019-04-27T18:35:51.633Z,78.23
2019-04-27T18:38:21.084Z,78.42
2019-04-27T18:40:50.482Z,79.02
2019-04-27T18:43:19.863Z,79.06
2019-04-27T18:45:49.276Z,79.30
2019-04-27T18:48:22.880Z,79.66
2019-04-27T18:51:02.784Z,79.93
2019-04-27T18:53:33.804Z,80.25
2019-04-27T18:56:05.353Z,80.03
2019-04-27T18:58:34.306Z,80.13
2019-04-27T19:01:04.002Z,80.35
2019-04-27T19:03:33.231Z,80.69
2019-04-27T19:06:03.926Z,80.60
2019-04-27T19:08:33.347Z,80.52
2019-04-27T19:11:04.879Z,80.80
2019-04-27T19:13:33.774Z,80.79
2019-04-27T19:16:03.197Z,80.81
2019-04-27T19:18:32.560Z,80.93
2019-04-27T19:21:01.951Z,80.60
2019-04-27T19:23:31.279Z,80.66
2019-04-27T19:26:11.312Z,81.11
2019-04-27T19:28:42.356Z,80.72
2019-04-27T19:31:16.040Z,80.54
2019-04-27T19:33:45.499Z,80.61
2019-04-27T19:36:14.891Z,81.21
2019-04-27T19:38:44.290Z,81.31
2019-04-27T19:41:13.655Z,81.16
2019-04-27T19:43:42.978Z,80.89
2019-04-27T19:46:12.351Z,81.10
2019-04-27T19:48:41.764Z,80.61
2019-04-27T19:51:11.142Z,80.34
2019-04-27T19:53:40.458Z,79.95
2019-04-27T19:56:09.856Z,79.85
2019-04-27T19:58:40.844Z,79.60
2019-04-27T20:01:14.582Z,79.43
2019-04-27T20:03:44.640Z,79.04
2019-04-27T20:06:14.051Z,78.98
2019-04-27T20:08:45.045Z,78.71
2019-04-27T20:11:14.523Z,78.71
2019-04-27T20:13:48.583Z,78.90
2019-04-27T20:16:17.888Z,78.76
2019-04-27T20:18:47.340Z,78.76
2019-04-27T20:21:16.708Z,78.51
2019-04-27T20:23:46.003Z,78.46
2019-04-27T20:26:15.339Z,78.68
2019-04-27T20:28:44.775Z,78.79
2019-04-27T20:31:14.283Z,78.70
2019-04-27T20:33:43.700Z,78.96
2019-04-27T20:36:13.062Z,78.95
2019-04-27T20:38:42.354Z,78.86
2019-04-27T20:41:11.755Z,78.73
2019-04-27T20:43:42.060Z,78.57
2019-04-27T20:46:11.918Z,78.30
2019-04-27T20:48:41.639Z,78.36
2019-04-27T20:51:11.503Z,78.47
2019-04-27T20:53:42.646Z,78.20
2019-04-27T20:56:12.060Z,78.49
2019-04-27T20:58:41.424Z,78.45
2019-04-27T21:01:10.764Z,78.63
2019-04-27T21:03:47.745Z,78.10
2019-04-27T21:06:18.759Z,78.02
2019-04-27T21:08:48.124Z,78.05
2019-04-27T21:11:17.430Z,78.00
2019-04-27T21:13:46.714Z,77.79
2019-04-27T21:16:16.218Z,77.82
2019-04-27T21:18:45.597Z,77.87
2019-04-27T21:21:15.136Z,77.65
2019-04-27T21:23:44.611Z,77.27
2019-04-27T21:26:13.980Z,77.33
2019-04-27T21:28:43.495Z,77.07
2019-04-27T21:31:12.952Z,76.93
2019-04-27T21:33:42.285Z,76.72
2019-04-27T21:36:11.850Z,76.89
2019-04-27T21:38:42.948Z,76.70
2019-04-27T21:41:12.555Z,76.60
2019-04-27T21:43:43.723Z,76.61
2019-04-27T21:46:12.866Z,76.82
2019-04-27T21:48:42.211Z,76.88
2019-04-27T21:51:11.939Z,76.86
2019-04-27T21:53:51.359Z,76.74
2019-04-27T21:56:22.050Z,76.48
2019-04-27T21:58:51.379Z,76.09
2019-04-27T22:01:23.415Z,76.10
2019-04-27T22:03:52.913Z,76.02
2019-04-27T22:06:22.304Z,75.83
2019-04-27T22:08:51.708Z,75.71
2019-04-27T22:11:21.901Z,76.20
2019-04-27T22:13:52.022Z,76.05
2019-04-27T22:16:21.505Z,76.27
2019-04-27T22:18:51.903Z,76.50
2019-04-27T22:21:21.842Z,76.12
2019-04-27T22:23:52.903Z,76.14
2019-04-27T22:26:22.409Z,75.99
2019-04-27T22:28:52.163Z,76.07
2019-04-27T22:31:21.859Z,76.24
2019-04-27T22:33:54.418Z,76.04
2019-04-27T22:36:22.159Z,75.47
2019-04-27T22:38:52.122Z,75.64
2019-04-27T22:41:32.069Z,76.08
2019-04-27T22:44:05.998Z,76.14
2019-04-27T22:46:41.004Z,76.37
2019-04-27T22:49:10.946Z,76.42
2019-04-27T22:51:41.172Z,76.24
2019-04-27T22:54:11.763Z,76.53
2019-04-27T22:56:42.894Z,76.23
2019-04-27T22:59:21.345Z,76.28
2019-04-27T23:01:55.599Z,76.21
2019-04-27T23:04:32.370Z,76.21
2019-04-27T23:07:00.662Z,76.31
2019-04-27T23:09:31.494Z,76.52
2019-04-27T23:12:01.875Z,76.45
2019-04-27T23:14:31.399Z,76.63
2019-04-27T23:17:19.008Z,76.80
2019-04-27T23:19:48.638Z,76.97
2019-04-27T23:22:18.024Z,76.55
2019-04-27T23:24:47.343Z,76.21
2019-04-27T23:27:16.701Z,76.40
2019-04-27T23:29:46.151Z,75.56
2019-04-27T23:32:21.435Z,75.43
2019-04-27T23:34:51.461Z,75.64
2019-04-27T23:37:21.050Z,75.54
2019-04-27T23:39:50.499Z,76.07
2019-04-27T23:42:21.625Z,75.91
2019-04-27T23:44:51.888Z,75.46
2019-04-27T23:47:21.359Z,75.69
2019-04-27T23:49:50.910Z,75.52
2019-04-27T23:52:24.802Z,76.03
2019-04-27T23:54:54.133Z,74.08
2019-04-27T23:57:23.572Z,73.20
2019-04-27T23:59:52.856Z,73.64
